Date,TemperatureHighF,TemperatureAvgF,TemperatureLowF,DewpointHighF,DewpointAvgF,DewpointLowF,HumidityHigh,HumidityAvg,HumidityLow,PressureMaxIn,PressureMinIn,WindSpeedMaxMPH,WindSpeedAvgMPH,GustSpeedMaxMPH,PrecipitationSumIn
2013-1-1,46.0,43.3,37.9,44.8,37.0,20.1,99,81,42,30.10,29.92,0,0,0,0.29
2013-1-2,42.3,36.2,32.8,42.0,35.3,32.3,99,96,88,30.12,29.88,0,0,0,0.02
2013-1-3,37.4,32.5,28.5,36.6,30.7,25.4,99,93,80,30.29,30.08,0,0,0,0.00
2013-1-4,37.1,29.4,25.0,25.6,21.7,18.5,89,74,48,30.38,30.28,0,0,0,0.00
2013-1-5,46.1,35.0,24.5,28.7,22.0,18.9,81,61,35,30.40,30.21,0,0,0,0.00
2013-1-6,44.1,37.5,33.9,37.5,32.9,27.4,94,83,70,30.22,30.04,0,0,0,0.00
2013-1-7,48.7,36.6,27.2,31.1,27.0,23.4,92,70,39,30.39,30.20,0,0,0,0.00
2013-1-8,50.3,41.5,32.3,44.2,34.5,26.4,91,76,58,30.42,30.31,0,0,0,0.00
2013-1-9,56.0,50.1,46.4,51.9,48.5,44.2,100,94,84,30.42,30.33,0,0,0,0.00
2013-1-10,61.2,54.1,48.3,54.0,50.7,44.3,98,88,74,30.42,30.23,0,0,0,0.00
2013-1-11,56.1,51.4,45.5,56.0,51.1,43.9,100,99,88,30.23,30.07,0,0,0,0.04
2013-1-12,69.4,60.5,55.9,60.9,57.5,54.9,100,90,69,30.12,29.99,0,0,0,0.01
2013-1-13,65.9,59.5,56.2,58.1,55.7,53.6,97,88,72,30.03,29.93,0,0,0,0.02
2013-1-14,57.3,51.2,39.4,56.9,51.1,39.1,100,99,97,30.11,29.94,0,0,0,1.22
2013-1-15,50.6,47.1,39.7,50.6,47.0,39.4,100,100,99,30.09,29.95,0,0,0,0.84
2013-1-16,53.2,49.7,46.3,53.2,49.6,46.3,100,99,97,29.99,29.88,0,0,0,0.23
2013-1-17,50.0,38.0,28.1,50.0,37.9,27.8,100,100,99,30.19,29.74,0,0,0,1.52
2013-1-18,41.9,31.8,24.5,31.7,26.7,22.3,99,83,54,30.52,30.19,0,0,0,0.10
2013-1-19,50.8,39.9,30.5,31.0,26.1,18.1,81,60,29,30.47,30.15,0,0,0,0.02
2013-1-20,52.3,42.7,37.6,35.4,28.3,17.7,71,57,42,30.15,30.03,0,0,0,0.00
2013-1-21,46.8,37.5,25.8,29.5,23.8,13.0,79,58,41,30.07,29.94,0,0,0,0.00
2013-1-22,27.2,21.6,15.9,14.2,4.1,-4.3,69,48,27,30.27,30.00,0,0,0,0.00
2013-1-23,39.4,29.5,20.9,26.4,15.3,1.4,70,55,42,30.36,30.08,0,0,0,0.00
2013-1-24,38.4,30.4,21.1,31.2,16.5,5.0,81,58,35,30.37,30.00,0,0,0,0.00
2013-1-25,36.4,25.4,18.4,35.8,19.7,5.4,99,80,53,30.40,30.11,0,0,0,0.02
2013-1-26,43.2,33.9,28.0,34.6,27.1,23.0,99,78,46,30.33,30.14,0,0,0,0.00
2013-1-27,41.7,33.0,25.8,31.4,27.7,22.4,94,81,64,30.48,30.32,0,0,0,0.03
2013-1-28,61.9,47.6,33.0,50.1,40.6,30.6,94,78,57,30.42,30.20,0,0,0,0.01
2013-1-29,68.3,56.8,49.3,56.0,48.5,41.4,97,75,49,30.20,29.91,0,0,0,0.02
2013-1-30,58.6,53.7,40.8,57.9,53.1,38.9,100,98,93,29.91,29.40,0,0,0,2.23
2013-1-31,40.9,31.7,25.9,39.4,24.7,20.4,96,76,57,30.00,29.45,0,0,0,0.05